KRID/RID METAR and TAF weather

Enter ICAO airport designator
Station Type Date Time Source
KRID METAR 2021/09/16 10:55 UTC NOAA

KRID 161055Z AUTO 00000KT 4SM BR CLR 13/13 A3011 RMK AO2


Station Type Date Time Source
KRID Decoded METAR 2021/09/16 10:55 UTC NOAA

Station name not available
Sep 16, 2021 - 06:55 AM EDT / 2021.09.16 1055 UTC
Wind: Calm:0
Visibility: 4 mile(s):0
Sky conditions: clear
Weather: mist
Temperature: 55 F (13 C)
Dew Point: 55 F (13 C)
Relative Humidity: 100%
Pressure (altimeter): 30.11 in. Hg (1019 hPa)
ob: KRID 161055Z AUTO 00000KT 4SM BR CLR 13/13 A3011 RMK AO2
cycle: 11

Station Type Date Time Source
KRID TAF UTC NOAA

Error!

Example: see airport list